sensor_id;sensor_type;location;lat;lon;timestamp;P1;durP1;ratioP1;P2;durP2;ratioP2
24153;SDS011;12312;53.362;-1.518;2024-01-06T00:02:11;5.60;;;2.90;;
24153;SDS011;12312;53.362;-1.518;2024-01-06T00:04:55;5.25;;;3.13;;
24153;SDS011;12312;53.362;-1.518;2024-01-06T00:07:38;4.97;;;3.10;;
24153;SDS011;12312;53.362;-1.518;2024-01-06T00:10:22;6.35;;;3.08;;
24153;SDS011;12312;53.362;-1.518;2024-01-06T00:13:06;5.85;;;3.38;;
24153;SDS011;12312;53.362;-1.518;2024-01-06T00:15:50;6.22;;;3.10;;
24153;SDS011;12312;53.362;-1.518;2024-01-06T00:18:34;5.72;;;3.03;;
24153;SDS011;12312;53.362;-1.518;2024-01-06T00:21:18;4.43;;;2.72;;
24153;SDS011;12312;53.362;-1.518;2024-01-06T00:24:02;5.50;;;2.72;;
24153;SDS011;12312;53.362;-1.518;2024-01-06T00:26:47;4.32;;;2.78;;
24153;SDS011;12312;53.362;-1.518;2024-01-06T00:29:31;4.97;;;2.67;;
24153;SDS011;12312;53.362;-1.518;2024-01-06T00:32:15;6.38;;;3.17;;
24153;SDS011;12312;53.362;-1.518;2024-01-06T00:34:58;4.82;;;2.50;;
24153;SDS011;12312;53.362;-1.518;2024-01-06T00:37:42;5.15;;;2.42;;
24153;SDS011;12312;53.362;-1.518;2024-01-06T00:40:26;2.95;;;2.00;;
24153;SDS011;12312;53.362;-1.518;2024-01-06T00:43:10;5.97;;;2.47;;
24153;SDS011;12312;53.362;-1.518;2024-01-06T00:45:54;3.83;;;2.08;;
24153;SDS011;12312;53.362;-1.518;2024-01-06T00:48:38;3.80;;;2.38;;
24153;SDS011;12312;53.362;-1.518;2024-01-06T00:51:22;4.05;;;2.13;;
24153;SDS011;12312;53.362;-1.518;2024-01-06T00:54:06;4.22;;;2.53;;
24153;SDS011;12312;53.362;-1.518;2024-01-06T00:56:50;2.85;;;2.08;;
24153;SDS011;12312;53.362;-1.518;2024-01-06T00:59:34;3.58;;;2.30;;
24153;SDS011;12312;53.362;-1.518;2024-01-06T01:02:18;6.63;;;2.30;;
24153;SDS011;12312;53.362;-1.518;2024-01-06T01:05:02;2.67;;;1.80;;
24153;SDS011;12312;53.362;-1.518;2024-01-06T01:07:46;4.25;;;2.00;;
24153;SDS011;12312;53.362;-1.518;2024-01-06T01:10:30;3.20;;;2.08;;
24153;SDS011;12312;53.362;-1.518;2024-01-06T01:13:14;4.32;;;2.25;;
24153;SDS011;12312;53.362;-1.518;2024-01-06T01:15:58;4.20;;;2.17;;
24153;SDS011;12312;53.362;-1.518;2024-01-06T01:18:42;3.47;;;1.65;;
24153;SDS011;12312;53.362;-1.518;2024-01-06T01:21:26;3.08;;;2.05;;
24153;SDS011;12312;53.362;-1.518;2024-01-06T01:24:10;5.78;;;2.33;;
24153;SDS011;12312;53.362;-1.518;2024-01-06T01:26:54;4.35;;;2.08;;
24153;SDS011;12312;53.362;-1.518;2024-01-06T01:29:38;3.92;;;1.95;;
24153;SDS011;12312;53.362;-1.518;2024-01-06T01:32:22;2.78;;;1.58;;
24153;SDS011;12312;53.362;-1.518;2024-01-06T01:35:06;3.92;;;2.10;;
24153;SDS011;12312;53.362;-1.518;2024-01-06T01:37:51;3.75;;;1.75;;
24153;SDS011;12312;53.362;-1.518;2024-01-06T01:40:35;3.83;;;2.15;;
24153;SDS011;12312;53.362;-1.518;2024-01-06T01:43:19;3.40;;;2.05;;
24153;SDS011;12312;53.362;-1.518;2024-01-06T01:46:03;3.17;;;1.95;;
24153;SDS011;12312;53.362;-1.518;2024-01-06T01:48:47;3.40;;;1.80;;
24153;SDS011;12312;53.362;-1.518;2024-01-06T01:51:33;2.33;;;1.52;;
24153;SDS011;12312;53.362;-1.518;2024-01-06T01:54:19;5.55;;;2.20;;
24153;SDS011;12312;53.362;-1.518;2024-01-06T01:57:03;4.43;;;1.60;;
24153;SDS011;12312;53.362;-1.518;2024-01-06T01:59:47;3.97;;;1.80;;
24153;SDS011;12312;53.362;-1.518;2024-01-06T02:02:31;4.22;;;2.25;;
24153;SDS011;12312;53.362;-1.518;2024-01-06T02:05:16;3.97;;;1.70;;
24153;SDS011;12312;53.362;-1.518;2024-01-06T02:08:00;2.38;;;1.65;;
24153;SDS011;12312;53.362;-1.518;2024-01-06T02:10:44;5.07;;;2.00;;
24153;SDS011;12312;53.362;-1.518;2024-01-06T02:13:35;2.63;;;1.77;;
24153;SDS011;12312;53.362;-1.518;2024-01-06T02:16:19;2.85;;;1.85;;
24153;SDS011;12312;53.362;-1.518;2024-01-06T02:19:03;4.20;;;1.98;;
24153;SDS011;12312;53.362;-1.518;2024-01-06T02:21:48;5.25;;;1.52;;
24153;SDS011;12312;53.362;-1.518;2024-01-06T02:24:35;4.78;;;1.92;;
24153;SDS011;12312;53.362;-1.518;2024-01-06T02:27:19;3.83;;;1.80;;
24153;SDS011;12312;53.362;-1.518;2024-01-06T02:30:03;3.53;;;1.88;;
24153;SDS011;12312;53.362;-1.518;2024-01-06T02:32:48;4.20;;;1.50;;
24153;SDS011;12312;53.362;-1.518;2024-01-06T02:35:32;2.90;;;1.85;;
24153;SDS011;12312;53.362;-1.518;2024-01-06T02:38:16;2.30;;;1.27;;
24153;SDS011;12312;53.362;-1.518;2024-01-06T02:41:00;4.63;;;1.85;;
24153;SDS011;12312;53.362;-1.518;2024-01-06T02:43:44;3.17;;;1.33;;
24153;SDS011;12312;53.362;-1.518;2024-01-06T02:46:28;2.92;;;1.35;;
24153;SDS011;12312;53.362;-1.518;2024-01-06T02:49:12;1.30;;;1.20;;
24153;SDS011;12312;53.362;-1.518;2024-01-06T02:51:56;2.97;;;1.42;;
24153;SDS011;12312;53.362;-1.518;2024-01-06T02:54:40;3.70;;;1.70;;
24153;SDS011;12312;53.362;-1.518;2024-01-06T02:57:24;2.03;;;1.40;;
24153;SDS011;12312;53.362;-1.518;2024-01-06T03:00:08;2.05;;;1.17;;
24153;SDS011;12312;53.362;-1.518;2024-01-06T03:02:52;3.10;;;1.63;;
24153;SDS011;12312;53.362;-1.518;2024-01-06T03:05:36;2.50;;;1.38;;
24153;SDS011;12312;53.362;-1.518;2024-01-06T03:08:20;1.85;;;1.02;;
24153;SDS011;12312;53.362;-1.518;2024-01-06T03:13:50;2.85;;;1.30;;
24153;SDS011;12312;53.362;-1.518;2024-01-06T03:16:34;2.15;;;1.45;;
24153;SDS011;12312;53.362;-1.518;2024-01-06T03:19:18;2.35;;;1.33;;
24153;SDS011;12312;53.362;-1.518;2024-01-06T03:22:03;2.28;;;1.27;;
24153;SDS011;12312;53.362;-1.518;2024-01-06T03:24:47;3.75;;;1.10;;
24153;SDS011;12312;53.362;-1.518;2024-01-06T03:27:31;3.35;;;1.48;;
24153;SDS011;12312;53.362;-1.518;2024-01-06T03:30:15;1.55;;;1.00;;
24153;SDS011;12312;53.362;-1.518;2024-01-06T03:33:00;2.60;;;1.02;;
24153;SDS011;12312;53.362;-1.518;2024-01-06T03:35:44;4.75;;;1.40;;
24153;SDS011;12312;53.362;-1.518;2024-01-06T03:38:27;1.65;;;1.20;;
24153;SDS011;12312;53.362;-1.518;2024-01-06T03:41:11;7.18;;;1.30;;
24153;SDS011;12312;53.362;-1.518;2024-01-06T03:43:56;1.90;;;1.00;;
24153;SDS011;12312;53.362;-1.518;2024-01-06T03:46:40;1.88;;;1.30;;
24153;SDS011;12312;53.362;-1.518;2024-01-06T03:49:25;2.50;;;1.03;;
24153;SDS011;12312;53.362;-1.518;2024-01-06T03:52:10;1.25;;;0.90;;
24153;SDS011;12312;53.362;-1.518;2024-01-06T03:54:53;4.68;;;1.15;;
24153;SDS011;12312;53.362;-1.518;2024-01-06T03:57:37;1.88;;;0.98;;
24153;SDS011;12312;53.362;-1.518;2024-01-06T04:00:21;1.92;;;0.98;;
24153;SDS011;12312;53.362;-1.518;2024-01-06T04:03:06;3.45;;;1.35;;
24153;SDS011;12312;53.362;-1.518;2024-01-06T04:05:50;1.95;;;1.13;;
24153;SDS011;12312;53.362;-1.518;2024-01-06T04:08:35;2.63;;;0.95;;
24153;SDS011;12312;53.362;-1.518;2024-01-06T04:11:20;2.70;;;1.13;;
24153;SDS011;12312;53.362;-1.518;2024-01-06T04:14:05;1.42;;;1.00;;
24153;SDS011;12312;53.362;-1.518;2024-01-06T04:16:49;1.02;;;0.93;;
24153;SDS011;12312;53.362;-1.518;2024-01-06T04:19:33;1.75;;;1.15;;
24153;SDS011;12312;53.362;-1.518;2024-01-06T04:22:17;2.50;;;1.20;;
24153;SDS011;12312;53.362;-1.518;2024-01-06T04:25:01;1.90;;;1.33;;
24153;SDS011;12312;53.362;-1.518;2024-01-06T04:27:45;1.30;;;1.10;;
24153;SDS011;12312;53.362;-1.518;2024-01-06T04:30:30;1.30;;;1.00;;
24153;SDS011;12312;53.362;-1.518;2024-01-06T04:33:14;3.95;;;1.58;;
24153;SDS011;12312;53.362;-1.518;2024-01-06T04:35:58;1.42;;;1.30;;
24153;SDS011;12312;53.362;-1.518;2024-01-06T04:38:43;3.95;;;1.50;;
24153;SDS011;12312;53.362;-1.518;2024-01-06T04:41:27;4.65;;;1.63;;
24153;SDS011;12312;53.362;-1.518;2024-01-06T04:44:11;2.28;;;1.35;;
24153;SDS011;12312;53.362;-1.518;2024-01-06T04:46:55;1.88;;;1.20;;
24153;SDS011;12312;53.362;-1.518;2024-01-06T04:49:39;3.15;;;0.95;;
24153;SDS011;12312;53.362;-1.518;2024-01-06T04:52:23;4.65;;;1.38;;
24153;SDS011;12312;53.362;-1.518;2024-01-06T04:55:08;1.45;;;0.90;;
24153;SDS011;12312;53.362;-1.518;2024-01-06T04:57:51;7.20;;;1.60;;
24153;SDS011;12312;53.362;-1.518;2024-01-06T05:00:35;2.88;;;1.58;;
24153;SDS011;12312;53.362;-1.518;2024-01-06T05:03:19;2.45;;;1.23;;
24153;SDS011;12312;53.362;-1.518;2024-01-06T05:06:03;5.45;;;1.20;;
24153;SDS011;12312;53.362;-1.518;2024-01-06T05:08:47;3.78;;;1.40;;
24153;SDS011;12312;53.362;-1.518;2024-01-06T05:11:31;3.38;;;2.13;;
24153;SDS011;12312;53.362;-1.518;2024-01-06T05:14:15;2.42;;;1.50;;
24153;SDS011;12312;53.362;-1.518;2024-01-06T05:16:59;2.30;;;1.55;;
24153;SDS011;12312;53.362;-1.518;2024-01-06T05:19:43;3.47;;;1.65;;
24153;SDS011;12312;53.362;-1.518;2024-01-06T05:22:27;4.00;;;1.70;;
24153;SDS011;12312;53.362;-1.518;2024-01-06T05:25:12;3.08;;;1.70;;
24153;SDS011;12312;53.362;-1.518;2024-01-06T05:27:56;2.10;;;1.30;;
24153;SDS011;12312;53.362;-1.518;2024-01-06T05:30:39;3.67;;;1.33;;
24153;SDS011;12312;53.362;-1.518;2024-01-06T05:33:24;4.85;;;1.05;;
24153;SDS011;12312;53.362;-1.518;2024-01-06T05:36:07;2.53;;;0.90;;
24153;SDS011;12312;53.362;-1.518;2024-01-06T05:38:51;5.57;;;1.35;;
24153;SDS011;12312;53.362;-1.518;2024-01-06T05:41:39;4.82;;;1.50;;
24153;SDS011;12312;53.362;-1.518;2024-01-06T05:44:24;2.58;;;1.13;;
24153;SDS011;12312;53.362;-1.518;2024-01-06T05:47:07;2.40;;;1.38;;
24153;SDS011;12312;53.362;-1.518;2024-01-06T05:49:52;2.83;;;1.52;;
24153;SDS011;12312;53.362;-1.518;2024-01-06T05:52:36;4.43;;;1.30;;
24153;SDS011;12312;53.362;-1.518;2024-01-06T05:55:20;3.78;;;1.23;;
24153;SDS011;12312;53.362;-1.518;2024-01-06T05:58:04;3.67;;;1.23;;
24153;SDS011;12312;53.362;-1.518;2024-01-06T06:00:49;2.45;;;1.45;;
24153;SDS011;12312;53.362;-1.518;2024-01-06T06:03:32;2.08;;;1.27;;
24153;SDS011;12312;53.362;-1.518;2024-01-06T06:06:17;4.78;;;1.20;;
24153;SDS011;12312;53.362;-1.518;2024-01-06T06:09:01;3.40;;;0.88;;
24153;SDS011;12312;53.362;-1.518;2024-01-06T06:11:50;4.57;;;1.23;;
24153;SDS011;12312;53.362;-1.518;2024-01-06T06:14:34;3.55;;;1.23;;
24153;SDS011;12312;53.362;-1.518;2024-01-06T06:17:17;1.38;;;0.82;;
24153;SDS011;12312;53.362;-1.518;2024-01-06T06:20:01;1.90;;;1.15;;
24153;SDS011;12312;53.362;-1.518;2024-01-06T06:22:46;0.80;;;0.70;;
24153;SDS011;12312;53.362;-1.518;2024-01-06T06:25:30;2.47;;;1.17;;
24153;SDS011;12312;53.362;-1.518;2024-01-06T06:28:14;0.70;;;0.70;;
24153;SDS011;12312;53.362;-1.518;2024-01-06T06:30:58;1.10;;;0.82;;
24153;SDS011;12312;53.362;-1.518;2024-01-06T06:33:42;2.75;;;0.80;;
24153;SDS011;12312;53.362;-1.518;2024-01-06T06:36:26;3.47;;;1.38;;
24153;SDS011;12312;53.362;-1.518;2024-01-06T06:39:10;1.08;;;0.75;;
24153;SDS011;12312;53.362;-1.518;2024-01-06T06:41:54;6.65;;;1.70;;
24153;SDS011;12312;53.362;-1.518;2024-01-06T06:44:38;5.60;;;1.10;;
24153;SDS011;12312;53.362;-1.518;2024-01-06T06:47:22;11.38;;;1.50;;
24153;SDS011;12312;53.362;-1.518;2024-01-06T06:50:06;3.78;;;1.20;;
24153;SDS011;12312;53.362;-1.518;2024-01-06T06:52:50;2.95;;;1.08;;
24153;SDS011;12312;53.362;-1.518;2024-01-06T06:55:34;6.85;;;1.25;;
24153;SDS011;12312;53.362;-1.518;2024-01-06T06:58:21;2.13;;;0.85;;
24153;SDS011;12312;53.362;-1.518;2024-01-06T07:01:05;5.63;;;1.23;;
24153;SDS011;12312;53.362;-1.518;2024-01-06T07:03:49;3.00;;;0.80;;
24153;SDS011;12312;53.362;-1.518;2024-01-06T07:06:33;1.42;;;1.27;;
24153;SDS011;12312;53.362;-1.518;2024-01-06T07:09:17;3.35;;;0.93;;
24153;SDS011;12312;53.362;-1.518;2024-01-06T07:12:01;10.18;;;1.17;;
24153;SDS011;12312;53.362;-1.518;2024-01-06T07:14:45;2.55;;;1.00;;
24153;SDS011;12312;53.362;-1.518;2024-01-06T07:17:29;1.13;;;0.65;;
24153;SDS011;12312;53.362;-1.518;2024-01-06T07:20:13;6.55;;;1.50;;
24153;SDS011;12312;53.362;-1.518;2024-01-06T07:22:57;8.30;;;0.95;;
24153;SDS011;12312;53.362;-1.518;2024-01-06T07:25:40;0.63;;;0.55;;
24153;SDS011;12312;53.362;-1.518;2024-01-06T07:28:24;6.28;;;1.20;;
24153;SDS011;12312;53.362;-1.518;2024-01-06T07:31:09;5.00;;;1.95;;
24153;SDS011;12312;53.362;-1.518;2024-01-06T07:33:53;5.30;;;1.15;;
24153;SDS011;12312;53.362;-1.518;2024-01-06T07:36:37;2.85;;;1.17;;
24153;SDS011;12312;53.362;-1.518;2024-01-06T07:39:22;1.75;;;0.60;;
24153;SDS011;12312;53.362;-1.518;2024-01-06T07:42:07;6.05;;;1.00;;
24153;SDS011;12312;53.362;-1.518;2024-01-06T07:44:51;1.60;;;0.80;;
24153;SDS011;12312;53.362;-1.518;2024-01-06T07:47:35;1.25;;;1.15;;
24153;SDS011;12312;53.362;-1.518;2024-01-06T07:50:20;2.25;;;1.27;;
24153;SDS011;12312;53.362;-1.518;2024-01-06T07:53:04;5.70;;;1.20;;
24153;SDS011;12312;53.362;-1.518;2024-01-06T07:55:48;4.47;;;1.00;;
24153;SDS011;12312;53.362;-1.518;2024-01-06T07:58:32;2.13;;;1.20;;
24153;SDS011;12312;53.362;-1.518;2024-01-06T08:01:16;4.70;;;1.10;;
24153;SDS011;12312;53.362;-1.518;2024-01-06T08:04:00;1.52;;;0.77;;
24153;SDS011;12312;53.362;-1.518;2024-01-06T08:06:44;12.18;;;1.38;;
24153;SDS011;12312;53.362;-1.518;2024-01-06T08:09:28;6.97;;;1.05;;
24153;SDS011;12312;53.362;-1.518;2024-01-06T08:12:12;4.13;;;1.10;;
24153;SDS011;12312;53.362;-1.518;2024-01-06T08:14:56;4.10;;;1.00;;
24153;SDS011;12312;53.362;-1.518;2024-01-06T08:17:41;2.65;;;1.05;;
24153;SDS011;12312;53.362;-1.518;2024-01-06T08:20:26;6.40;;;1.00;;
24153;SDS011;12312;53.362;-1.518;2024-01-06T08:23:10;3.05;;;0.90;;
24153;SDS011;12312;53.362;-1.518;2024-01-06T08:25:54;5.57;;;1.05;;
24153;SDS011;12312;53.362;-1.518;2024-01-06T08:28:39;6.78;;;1.23;;
24153;SDS011;12312;53.362;-1.518;2024-01-06T08:31:22;4.25;;;0.82;;
24153;SDS011;12312;53.362;-1.518;2024-01-06T08:34:07;4.40;;;0.80;;
24153;SDS011;12312;53.362;-1.518;2024-01-06T08:36:51;1.73;;;1.02;;
24153;SDS011;12312;53.362;-1.518;2024-01-06T08:39:35;2.03;;;1.42;;
24153;SDS011;12312;53.362;-1.518;2024-01-06T08:42:19;2.95;;;1.63;;
24153;SDS011;12312;53.362;-1.518;2024-01-06T08:45:04;2.63;;;0.85;;
24153;SDS011;12312;53.362;-1.518;2024-01-06T08:47:48;5.57;;;0.90;;
24153;SDS011;12312;53.362;-1.518;2024-01-06T08:50:32;1.77;;;1.17;;
24153;SDS011;12312;53.362;-1.518;2024-01-06T08:53:16;4.22;;;1.30;;
24153;SDS011;12312;53.362;-1.518;2024-01-06T08:56:01;3.53;;;1.30;;
24153;SDS011;12312;53.362;-1.518;2024-01-06T08:58:44;3.15;;;0.82;;
24153;SDS011;12312;53.362;-1.518;2024-01-06T09:01:29;2.03;;;0.98;;
24153;SDS011;12312;53.362;-1.518;2024-01-06T09:04:17;1.73;;;0.90;;
24153;SDS011;12312;53.362;-1.518;2024-01-06T09:09:46;1.75;;;1.05;;
24153;SDS011;12312;53.362;-1.518;2024-01-06T09:12:30;1.58;;;1.00;;
24153;SDS011;12312;53.362;-1.518;2024-01-06T09:15:14;5.22;;;1.15;;
24153;SDS011;12312;53.362;-1.518;2024-01-06T09:17:58;1.08;;;0.75;;
24153;SDS011;12312;53.362;-1.518;2024-01-06T09:20:42;4.45;;;1.30;;
24153;SDS011;12312;53.362;-1.518;2024-01-06T09:23:26;5.10;;;1.35;;
24153;SDS011;12312;53.362;-1.518;2024-01-06T09:26:10;1.42;;;0.73;;
24153;SDS011;12312;53.362;-1.518;2024-01-06T09:28:55;2.72;;;0.93;;
24153;SDS011;12312;53.362;-1.518;2024-01-06T09:31:40;3.13;;;1.38;;
24153;SDS011;12312;53.362;-1.518;2024-01-06T09:34:24;2.80;;;0.82;;
24153;SDS011;12312;53.362;-1.518;2024-01-06T09:37:08;3.58;;;1.10;;
24153;SDS011;12312;53.362;-1.518;2024-01-06T09:39:52;2.78;;;1.20;;
24153;SDS011;12312;53.362;-1.518;2024-01-06T09:42:36;2.78;;;1.02;;
24153;SDS011;12312;53.362;-1.518;2024-01-06T09:45:20;2.10;;;1.23;;
24153;SDS011;12312;53.362;-1.518;2024-01-06T09:48:11;1.98;;;1.00;;
24153;SDS011;12312;53.362;-1.518;2024-01-06T09:51:00;5.55;;;1.15;;
24153;SDS011;12312;53.362;-1.518;2024-01-06T09:53:57;3.00;;;0.90;;
24153;SDS011;12312;53.362;-1.518;2024-01-06T09:56:45;1.98;;;1.25;;
24153;SDS011;12312;53.362;-1.518;2024-01-06T09:59:29;4.65;;;1.10;;
24153;SDS011;12312;53.362;-1.518;2024-01-06T10:02:18;5.97;;;1.27;;
24153;SDS011;12312;53.362;-1.518;2024-01-06T10:07:48;3.33;;;0.93;;
24153;SDS011;12312;53.362;-1.518;2024-01-06T10:10:35;1.83;;;1.00;;
24153;SDS011;12312;53.362;-1.518;2024-01-06T10:13:21;2.00;;;1.17;;
24153;SDS011;12312;53.362;-1.518;2024-01-06T10:16:07;4.65;;;1.00;;
24153;SDS011;12312;53.362;-1.518;2024-01-06T10:18:53;3.75;;;1.02;;
24153;SDS011;12312;53.362;-1.518;2024-01-06T10:21:37;1.30;;;0.70;;
24153;SDS011;12312;53.362;-1.518;2024-01-06T10:24:22;2.75;;;0.93;;
24153;SDS011;12312;53.362;-1.518;2024-01-06T10:27:06;5.35;;;3.13;;
24153;SDS011;12312;53.362;-1.518;2024-01-06T10:29:52;3.30;;;1.35;;
24153;SDS011;12312;53.362;-1.518;2024-01-06T10:32:38;6.40;;;2.20;;
24153;SDS011;12312;53.362;-1.518;2024-01-06T10:35:24;1.70;;;0.98;;
24153;SDS011;12312;53.362;-1.518;2024-01-06T10:41:00;8.95;;;1.58;;
24153;SDS011;12312;53.362;-1.518;2024-01-06T10:43:51;2.90;;;0.77;;
24153;SDS011;12312;53.362;-1.518;2024-01-06T10:46:36;2.03;;;1.13;;
24153;SDS011;12312;53.362;-1.518;2024-01-06T10:49:21;8.02;;;1.23;;
24153;SDS011;12312;53.362;-1.518;2024-01-06T10:54:51;5.03;;;0.82;;
24153;SDS011;12312;53.362;-1.518;2024-01-06T11:00:22;0.77;;;0.70;;
24153;SDS011;12312;53.362;-1.518;2024-01-06T11:03:06;3.17;;;0.80;;
24153;SDS011;12312;53.362;-1.518;2024-01-06T11:05:52;1.77;;;0.77;;
24153;SDS011;12312;53.362;-1.518;2024-01-06T11:08:59;2.53;;;0.70;;
24153;SDS011;12312;53.362;-1.518;2024-01-06T11:11:47;5.88;;;0.88;;
24153;SDS011;12312;53.362;-1.518;2024-01-06T11:14:36;0.60;;;0.60;;
24153;SDS011;12312;53.362;-1.518;2024-01-06T11:17:55;0.52;;;0.52;;
24153;SDS011;12312;53.362;-1.518;2024-01-06T11:20:38;2.72;;;0.77;;
24153;SDS011;12312;53.362;-1.518;2024-01-06T11:23:43;4.10;;;1.00;;
24153;SDS011;12312;53.362;-1.518;2024-01-06T11:26:28;4.53;;;1.00;;
24153;SDS011;12312;53.362;-1.518;2024-01-06T11:29:13;1.88;;;0.93;;
24153;SDS011;12312;53.362;-1.518;2024-01-06T11:35:10;1.83;;;0.82;;
24153;SDS011;12312;53.362;-1.518;2024-01-06T11:37:55;4.47;;;1.10;;
24153;SDS011;12312;53.362;-1.518;2024-01-06T11:40:41;4.65;;;0.80;;
24153;SDS011;12312;53.362;-1.518;2024-01-06T11:43:26;0.93;;;0.67;;
24153;SDS011;12312;53.362;-1.518;2024-01-06T11:46:10;2.03;;;0.82;;
24153;SDS011;12312;53.362;-1.518;2024-01-06T11:48:55;1.20;;;0.63;;
24153;SDS011;12312;53.362;-1.518;2024-01-06T11:51:40;3.60;;;0.90;;
24153;SDS011;12312;53.362;-1.518;2024-01-06T11:54:24;3.03;;;0.80;;
24153;SDS011;12312;53.362;-1.518;2024-01-06T11:57:08;7.75;;;1.15;;
24153;SDS011;12312;53.362;-1.518;2024-01-06T11:59:53;6.68;;;1.27;;
24153;SDS011;12312;53.362;-1.518;2024-01-06T12:02:38;5.28;;;1.00;;
24153;SDS011;12312;53.362;-1.518;2024-01-06T12:05:22;2.03;;;1.10;;
24153;SDS011;12312;53.362;-1.518;2024-01-06T12:08:08;4.00;;;0.98;;
24153;SDS011;12312;53.362;-1.518;2024-01-06T12:11:01;3.65;;;1.15;;
24153;SDS011;12312;53.362;-1.518;2024-01-06T12:13:45;3.13;;;0.95;;
24153;SDS011;12312;53.362;-1.518;2024-01-06T12:16:30;2.55;;;0.80;;
24153;SDS011;12312;53.362;-1.518;2024-01-06T12:19:15;3.67;;;1.13;;
24153;SDS011;12312;53.362;-1.518;2024-01-06T12:21:59;4.63;;;1.15;;
24153;SDS011;12312;53.362;-1.518;2024-01-06T12:24:45;4.28;;;0.98;;
24153;SDS011;12312;53.362;-1.518;2024-01-06T12:27:32;1.90;;;0.60;;
24153;SDS011;12312;53.362;-1.518;2024-01-06T12:30:20;4.78;;;0.70;;
24153;SDS011;12312;53.362;-1.518;2024-01-06T12:33:06;5.45;;;0.95;;
24153;SDS011;12312;53.362;-1.518;2024-01-06T12:35:51;2.08;;;0.85;;
24153;SDS011;12312;53.362;-1.518;2024-01-06T12:38:34;4.18;;;1.10;;
24153;SDS011;12312;53.362;-1.518;2024-01-06T12:41:19;10.40;;;3.40;;
24153;SDS011;12312;53.362;-1.518;2024-01-06T12:44:04;5.93;;;2.80;;
24153;SDS011;12312;53.362;-1.518;2024-01-06T12:46:48;2.08;;;1.27;;
24153;SDS011;12312;53.362;-1.518;2024-01-06T12:49:32;1.88;;;0.90;;
24153;SDS011;12312;53.362;-1.518;2024-01-06T12:52:17;4.50;;;1.42;;
24153;SDS011;12312;53.362;-1.518;2024-01-06T12:55:01;2.63;;;1.05;;
24153;SDS011;12312;53.362;-1.518;2024-01-06T13:00:31;2.67;;;1.02;;
24153;SDS011;12312;53.362;-1.518;2024-01-06T13:03:15;2.88;;;1.40;;
24153;SDS011;12312;53.362;-1.518;2024-01-06T13:06:00;3.05;;;0.80;;
24153;SDS011;12312;53.362;-1.518;2024-01-06T13:08:44;1.98;;;1.17;;
24153;SDS011;12312;53.362;-1.518;2024-01-06T13:11:28;1.50;;;0.90;;
24153;SDS011;12312;53.362;-1.518;2024-01-06T13:14:12;3.53;;;1.20;;
24153;SDS011;12312;53.362;-1.518;2024-01-06T13:16:57;6.35;;;1.50;;
24153;SDS011;12312;53.362;-1.518;2024-01-06T13:19:40;2.63;;;0.90;;
24153;SDS011;12312;53.362;-1.518;2024-01-06T13:22:24;4.22;;;0.98;;
24153;SDS011;12312;53.362;-1.518;2024-01-06T13:25:09;1.45;;;1.00;;
24153;SDS011;12312;53.362;-1.518;2024-01-06T13:27:55;2.05;;;1.13;;
24153;SDS011;12312;53.362;-1.518;2024-01-06T13:30:40;2.00;;;1.20;;
24153;SDS011;12312;53.362;-1.518;2024-01-06T13:33:25;2.75;;;1.10;;
24153;SDS011;12312;53.362;-1.518;2024-01-06T13:36:09;2.50;;;1.35;;
24153;SDS011;12312;53.362;-1.518;2024-01-06T13:38:53;3.30;;;1.10;;
24153;SDS011;12312;53.362;-1.518;2024-01-06T13:41:37;2.83;;;0.77;;
24153;SDS011;12312;53.362;-1.518;2024-01-06T13:44:20;8.27;;;1.10;;
24153;SDS011;12312;53.362;-1.518;2024-01-06T13:47:06;3.90;;;0.93;;
24153;SDS011;12312;53.362;-1.518;2024-01-06T13:49:50;8.77;;;1.52;;
24153;SDS011;12312;53.362;-1.518;2024-01-06T13:52:34;1.25;;;1.10;;
24153;SDS011;12312;53.362;-1.518;2024-01-06T13:55:19;3.55;;;1.40;;
24153;SDS011;12312;53.362;-1.518;2024-01-06T13:58:03;2.35;;;1.08;;
24153;SDS011;12312;53.362;-1.518;2024-01-06T14:00:47;3.15;;;1.35;;
24153;SDS011;12312;53.362;-1.518;2024-01-06T14:03:32;4.43;;;1.58;;
24153;SDS011;12312;53.362;-1.518;2024-01-06T14:06:16;7.13;;;1.30;;
24153;SDS011;12312;53.362;-1.518;2024-01-06T14:09:01;9.82;;;1.77;;
24153;SDS011;12312;53.362;-1.518;2024-01-06T14:11:45;4.70;;;1.48;;
24153;SDS011;12312;53.362;-1.518;2024-01-06T14:14:30;7.53;;;1.60;;
24153;SDS011;12312;53.362;-1.518;2024-01-06T14:20:01;1.95;;;1.15;;
24153;SDS011;12312;53.362;-1.518;2024-01-06T14:22:45;9.93;;;1.85;;
24153;SDS011;12312;53.362;-1.518;2024-01-06T14:25:30;4.50;;;2.22;;
24153;SDS011;12312;53.362;-1.518;2024-01-06T14:28:14;3.20;;;2.00;;
24153;SDS011;12312;53.362;-1.518;2024-01-06T14:30:58;2.83;;;1.75;;
24153;SDS011;12312;53.362;-1.518;2024-01-06T14:33:42;6.05;;;2.25;;
24153;SDS011;12312;53.362;-1.518;2024-01-06T14:36:26;4.15;;;1.98;;
24153;SDS011;12312;53.362;-1.518;2024-01-06T14:39:10;8.52;;;2.63;;
24153;SDS011;12312;53.362;-1.518;2024-01-06T14:41:54;5.05;;;2.22;;
24153;SDS011;12312;53.362;-1.518;2024-01-06T14:44:38;5.40;;;1.95;;
24153;SDS011;12312;53.362;-1.518;2024-01-06T14:47:22;9.35;;;2.72;;
24153;SDS011;12312;53.362;-1.518;2024-01-06T14:50:06;4.05;;;1.98;;
24153;SDS011;12312;53.362;-1.518;2024-01-06T14:52:51;4.05;;;2.05;;
24153;SDS011;12312;53.362;-1.518;2024-01-06T14:55:35;4.70;;;1.65;;
24153;SDS011;12312;53.362;-1.518;2024-01-06T14:58:19;2.67;;;1.88;;
24153;SDS011;12312;53.362;-1.518;2024-01-06T15:01:04;7.80;;;2.30;;
24153;SDS011;12312;53.362;-1.518;2024-01-06T15:03:49;11.57;;;2.45;;
24153;SDS011;12312;53.362;-1.518;2024-01-06T15:06:33;9.75;;;2.22;;
24153;SDS011;12312;53.362;-1.518;2024-01-06T15:09:18;10.00;;;3.30;;
24153;SDS011;12312;53.362;-1.518;2024-01-06T15:12:04;9.27;;;2.58;;
24153;SDS011;12312;53.362;-1.518;2024-01-06T15:14:49;4.95;;;2.42;;
24153;SDS011;12312;53.362;-1.518;2024-01-06T15:17:33;4.88;;;2.22;;
24153;SDS011;12312;53.362;-1.518;2024-01-06T15:20:17;4.57;;;2.28;;
24153;SDS011;12312;53.362;-1.518;2024-01-06T15:23:01;4.63;;;2.83;;
24153;SDS011;12312;53.362;-1.518;2024-01-06T15:25:45;6.28;;;2.05;;
24153;SDS011;12312;53.362;-1.518;2024-01-06T15:28:30;3.27;;;2.30;;
24153;SDS011;12312;53.362;-1.518;2024-01-06T15:31:14;6.22;;;3.15;;
24153;SDS011;12312;53.362;-1.518;2024-01-06T15:33:58;6.70;;;2.47;;
24153;SDS011;12312;53.362;-1.518;2024-01-06T15:36:42;11.00;;;3.03;;
24153;SDS011;12312;53.362;-1.518;2024-01-06T15:39:26;4.20;;;2.17;;
24153;SDS011;12312;53.362;-1.518;2024-01-06T15:42:10;5.95;;;2.72;;
24153;SDS011;12312;53.362;-1.518;2024-01-06T15:44:54;5.57;;;2.13;;
24153;SDS011;12312;53.362;-1.518;2024-01-06T15:47:38;4.75;;;2.35;;
24153;SDS011;12312;53.362;-1.518;2024-01-06T15:50:22;6.13;;;2.10;;
24153;SDS011;12312;53.362;-1.518;2024-01-06T15:53:06;8.68;;;3.05;;
24153;SDS011;12312;53.362;-1.518;2024-01-06T15:55:50;7.25;;;2.20;;
24153;SDS011;12312;53.362;-1.518;2024-01-06T15:58:34;4.15;;;2.55;;
24153;SDS011;12312;53.362;-1.518;2024-01-06T16:01:18;11.75;;;3.22;;
24153;SDS011;12312;53.362;-1.518;2024-01-06T16:04:02;8.52;;;2.13;;
24153;SDS011;12312;53.362;-1.518;2024-01-06T16:06:47;8.35;;;2.92;;
24153;SDS011;12312;53.362;-1.518;2024-01-06T16:09:32;5.40;;;2.60;;
24153;SDS011;12312;53.362;-1.518;2024-01-06T16:12:16;6.07;;;2.38;;
24153;SDS011;12312;53.362;-1.518;2024-01-06T16:15:01;6.83;;;2.97;;
24153;SDS011;12312;53.362;-1.518;2024-01-06T16:17:45;8.48;;;3.13;;
24153;SDS011;12312;53.362;-1.518;2024-01-06T16:20:30;6.95;;;2.63;;
24153;SDS011;12312;53.362;-1.518;2024-01-06T16:23:15;3.88;;;2.33;;
24153;SDS011;12312;53.362;-1.518;2024-01-06T16:26:02;7.07;;;2.90;;
24153;SDS011;12312;53.362;-1.518;2024-01-06T16:28:46;8.02;;;3.20;;
24153;SDS011;12312;53.362;-1.518;2024-01-06T16:31:30;9.88;;;4.03;;
24153;SDS011;12312;53.362;-1.518;2024-01-06T16:34:14;9.07;;;4.80;;
24153;SDS011;12312;53.362;-1.518;2024-01-06T16:36:59;4.93;;;2.72;;
24153;SDS011;12312;53.362;-1.518;2024-01-06T16:39:43;4.82;;;2.80;;
24153;SDS011;12312;53.362;-1.518;2024-01-06T16:42:26;7.18;;;2.35;;